createdAt,value
2022-08-07T00:01:43.425Z,12
2022-08-07T00:11:39.934Z,11.9
2022-08-07T00:21:55.851Z,11.7
2022-08-07T00:31:41.584Z,11.6
2022-08-07T00:41:45.434Z,11.5
2022-08-07T00:51:56.499Z,11.4
2022-08-07T01:01:47.288Z,11.3
2022-08-07T01:12:05.333Z,11.1
2022-08-07T01:21:53.117Z,11
2022-08-07T01:31:53.456Z,10.8
2022-08-07T01:52:01.469Z,10.7
2022-08-07T02:02:02.273Z,10.8
2022-08-07T02:12:04.403Z,10.6
2022-08-07T02:22:04.389Z,10.4
2022-08-07T02:32:06.066Z,10.3
2022-08-07T02:42:09.971Z,10.3
2022-08-07T02:52:10.697Z,10.1
2022-08-07T03:02:12.420Z,10.3
2022-08-07T03:22:18.644Z,10
2022-08-07T03:42:21.619Z,10
2022-08-07T04:02:25.399Z,9.9
2022-08-07T04:12:28.855Z,9.7
2022-08-07T04:22:30.108Z,9.8
2022-08-07T04:32:34.141Z,9.6
2022-08-07T04:42:34.270Z,9.7
2022-08-07T04:52:36.554Z,9.9
2022-08-07T05:02:38.692Z,10.1
2022-08-07T05:12:46.396Z,10.5
2022-08-07T05:32:46.159Z,11.1
2022-08-07T06:02:52.143Z,12.3
2022-08-07T06:12:54.093Z,12.6
2022-08-07T06:23:01.967Z,13
2022-08-07T06:32:58.851Z,13.6
2022-08-07T06:43:00.979Z,14.1
2022-08-07T06:53:04.066Z,14.5
2022-08-07T07:43:15.404Z,16.7
2022-08-07T08:04:04.417Z,17.6
2022-08-07T08:13:21.539Z,18
2022-08-07T08:43:32.127Z,19.2
2022-08-07T09:03:47.862Z,19.9
2022-08-07T09:13:37.189Z,20.4
2022-08-07T09:24:30.303Z,20.3
2022-08-07T09:44:03.710Z,20.8
2022-08-07T09:53:48.969Z,21.1
2022-08-07T10:04:04.592Z,21.4
2022-08-07T10:13:55.810Z,21.4
2022-08-07T10:24:04.279Z,21.5
2022-08-07T10:34:05.407Z,21.8
2022-08-07T10:43:52.588Z,22
2022-08-07T11:04:05.660Z,21.8
2022-08-07T11:14:43.253Z,22.1
2022-08-07T11:24:00.599Z,22.6
2022-08-07T12:14:11.421Z,23.2
2022-08-07T12:34:15.575Z,24.1
2022-08-07T12:44:17.825Z,24.7
2022-08-07T12:54:24.389Z,25.5
2022-08-07T13:04:31.824Z,26.4
2022-08-07T13:14:23.578Z,25.1
2022-08-07T13:24:29.227Z,26.6
2022-08-07T13:34:32.382Z,25.7
2022-08-07T13:44:34.349Z,24.7
2022-08-07T13:54:33.489Z,24
2022-08-07T14:14:35.961Z,24.3
2022-08-07T14:24:38.151Z,23.8
2022-08-07T14:34:45.534Z,23.8
2022-08-07T14:44:41.994Z,23.8
2022-08-07T14:54:44.374Z,24.1
2022-08-07T15:04:52.888Z,23.6
2022-08-07T15:14:56.201Z,24
2022-08-07T15:25:03.448Z,24
2022-08-07T15:34:55.490Z,23.9
2022-08-07T15:44:55.759Z,24.3
2022-08-07T15:54:58.088Z,24.1
2022-08-07T16:05:00.109Z,23.7
2022-08-07T16:05:15.239Z,23.7
2022-08-07T16:15:08.859Z,23.8
2022-08-07T16:25:22.737Z,23.7
2022-08-07T16:35:52.176Z,24.2
2022-08-07T16:45:31.194Z,23.8
2022-08-07T16:55:17.163Z,23.8
2022-08-07T17:15:20.875Z,23.4
2022-08-07T17:25:45.865Z,23.3
2022-08-07T17:35:40.328Z,23.2
2022-08-07T17:45:26.842Z,22.8
2022-08-07T17:55:54.761Z,22.7
2022-08-07T18:06:01.244Z,22.7
2022-08-07T18:15:33.542Z,22.5
2022-08-07T18:25:39.516Z,22.2
2022-08-07T18:35:50.209Z,22
2022-08-07T18:45:45.173Z,21.6
2022-08-07T18:55:43.671Z,21.3
2022-08-07T19:06:02.976Z,21.1
2022-08-07T19:26:22.183Z,20.5
2022-08-07T19:35:50.288Z,19.9
2022-08-07T19:46:01.347Z,19.3
2022-08-07T19:55:57.081Z,18.9
2022-08-07T20:06:00.147Z,18.6
2022-08-07T20:15:58.707Z,18.2
2022-08-07T20:26:00.640Z,18.1
2022-08-07T20:36:03.275Z,17.7
2022-08-07T20:46:25.184Z,17.5
2022-08-07T20:56:06.622Z,17.3
2022-08-07T21:06:12.567Z,17.2
2022-08-07T21:26:13.468Z,16.8
2022-08-07T21:36:31.984Z,16.7
2022-08-07T21:46:24.215Z,17.1
2022-08-07T21:56:36.755Z,16.7
2022-08-07T22:06:29.033Z,16.3
2022-08-07T22:16:40.590Z,16.1
2022-08-07T22:26:26.541Z,15.8
2022-08-07T22:36:28.873Z,15.7
2022-08-07T22:46:42.640Z,15.5
2022-08-07T22:56:32.626Z,15.3
2022-08-07T23:16:39.191Z,15.1
2022-08-07T23:26:39.326Z,14.9
2022-08-07T23:36:43.139Z,14.7
2022-08-07T23:46:43.304Z,14.7
2022-08-07T23:56:53.732Z,14.5
